createdAt,value
2017-04-11T00:00:06.913Z,8.7
2017-04-11T00:00:47.824Z,8.66
2017-04-11T00:01:28.700Z,8.74
2017-04-11T00:02:09.577Z,8.74
2017-04-11T00:02:50.458Z,8.79
2017-04-11T00:03:31.328Z,8.78
2017-04-11T00:04:12.213Z,8.76
2017-04-11T00:04:53.089Z,8.78
2017-04-11T00:05:33.971Z,8.84
2017-04-11T00:06:14.857Z,8.71
2017-04-11T00:06:55.737Z,8.66
2017-04-11T00:07:36.615Z,8.67
2017-04-11T00:08:17.498Z,8.71
2017-04-11T00:08:58.407Z,8.69
2017-04-11T00:09:39.264Z,8.7
2017-04-11T00:10:20.142Z,8.81
2017-04-11T00:11:01.028Z,8.82
2017-04-11T00:11:41.905Z,8.74
2017-04-11T00:12:22.782Z,8.81
2017-04-11T00:13:03.649Z,8.81
2017-04-11T00:13:44.526Z,8.78
2017-04-11T00:14:25.408Z,8.81
2017-04-11T00:15:06.288Z,8.76
2017-04-11T00:15:47.166Z,8.66
2017-04-11T00:16:28.041Z,8.74
2017-04-11T00:17:08.919Z,8.69
2017-04-11T00:17:49.804Z,8.67
2017-04-11T00:18:30.681Z,8.64
2017-04-11T00:19:11.554Z,8.7
2017-04-11T00:19:52.434Z,8.7
2017-04-11T00:20:33.314Z,8.67
2017-04-11T00:21:14.195Z,8.64
2017-04-11T00:21:55.073Z,8.67
2017-04-11T00:22:35.956Z,8.7
2017-04-11T00:23:16.839Z,8.61
2017-04-11T00:23:57.714Z,8.56
2017-04-11T00:24:38.592Z,8.63
2017-04-11T00:25:19.476Z,8.66
2017-04-11T00:26:00.392Z,8.61
2017-04-11T00:26:41.271Z,8.58
2017-04-11T00:27:22.150Z,8.61
2017-04-11T00:28:03.027Z,8.53
2017-04-11T00:28:43.898Z,8.6
2017-04-11T00:29:24.788Z,8.63
2017-04-11T00:30:05.670Z,8.69
2017-04-11T00:30:46.548Z,8.63
2017-04-11T00:31:27.420Z,8.58
2017-04-11T00:32:08.288Z,8.6
2017-04-11T00:32:49.226Z,8.58
2017-04-11T00:33:30.090Z,8.55
2017-04-11T00:34:10.971Z,8.46
2017-04-11T00:34:51.852Z,8.36
2017-04-11T00:35:32.745Z,8.45
2017-04-11T00:36:13.622Z,8.42
2017-04-11T00:36:54.508Z,8.48
2017-04-11T00:37:35.385Z,8.44
2017-04-11T00:38:16.264Z,8.46
2017-04-11T00:38:57.144Z,8.36
2017-04-11T00:39:38.017Z,8.44
2017-04-11T00:40:18.895Z,8.37
2017-04-11T00:40:59.804Z,8.36
2017-04-11T00:41:40.690Z,8.36
2017-04-11T00:42:21.573Z,8.3
2017-04-11T00:43:02.452Z,8.3
2017-04-11T00:43:43.333Z,8.33
2017-04-11T00:44:24.215Z,8.37
2017-04-11T00:45:05.093Z,8.46
2017-04-11T00:45:45.970Z,8.48
2017-04-11T00:46:26.853Z,8.45
2017-04-11T00:47:07.726Z,8.33
2017-04-11T00:47:48.602Z,8.33
2017-04-11T00:48:29.473Z,8.44
2017-04-11T00:49:10.355Z,8.34
2017-04-11T00:49:51.231Z,8.26
2017-04-11T00:50:32.117Z,8.28
2017-04-11T00:51:12.986Z,8.27
2017-04-11T00:51:53.863Z,8.24
2017-04-11T00:52:34.741Z,8.27
2017-04-11T00:53:15.625Z,8.24
2017-04-11T00:53:56.505Z,8.26
2017-04-11T00:54:37.389Z,8.26
2017-04-11T00:55:18.265Z,8.24
2017-04-11T00:55:59.148Z,8.26
2017-04-11T00:56:40.039Z,8.33
2017-04-11T00:57:20.922Z,8.19
2017-04-11T00:58:01.796Z,8.26
2017-04-11T00:58:42.672Z,8.3
2017-04-11T00:59:23.550Z,8.23
2017-04-11T01:00:04.437Z,8.28
2017-04-11T01:00:45.319Z,8.42
2017-04-11T01:01:26.194Z,8.34
2017-04-11T01:02:07.072Z,8.26
2017-04-11T01:02:47.952Z,8.38
2017-04-11T01:03:28.827Z,8.23
2017-04-11T01:04:09.691Z,8.34
2017-04-11T01:04:50.586Z,8.33
2017-04-11T01:05:31.486Z,8.26
2017-04-11T01:06:12.367Z,8.33
2017-04-11T01:06:53.243Z,8.38
2017-04-11T01:07:34.119Z,8.44
2017-04-11T01:08:15.007Z,8.36
2017-04-11T01:08:55.886Z,8.26
2017-04-11T01:09:36.762Z,8.27
2017-04-11T01:10:17.643Z,8.28
2017-04-11T01:10:58.523Z,8.13
2017-04-11T01:12:36.900Z,8.15
2017-04-11T01:13:17.773Z,8.2
2017-04-11T01:13:58.703Z,8.1
2017-04-11T01:14:39.542Z,8.15
2017-04-11T01:15:20.457Z,8.12
2017-04-11T01:16:01.340Z,8.24
2017-04-11T01:16:43.953Z,8.24
2017-04-11T01:17:24.832Z,8.27
2017-04-11T01:18:07.244Z,8.2
2017-04-11T01:18:48.124Z,8.26
2017-04-11T01:19:29.005Z,8.09
2017-04-11T01:20:09.901Z,7.97
2017-04-11T01:20:50.776Z,7.97
2017-04-11T01:21:31.658Z,8.01
2017-04-11T01:22:12.521Z,8.05
2017-04-11T01:22:53.394Z,8.03
2017-04-11T01:23:34.267Z,8.03
2017-04-11T01:24:15.146Z,8.08
2017-04-11T01:24:56.021Z,7.98
2017-04-11T01:25:36.900Z,7.88
2017-04-11T01:26:17.778Z,7.9
2017-04-11T01:26:58.658Z,7.93
2017-04-11T01:27:39.526Z,7.98
2017-04-11T01:28:20.415Z,7.95
2017-04-11T01:29:01.296Z,7.9
2017-04-11T01:29:42.173Z,7.97
2017-04-11T01:30:24.987Z,7.97
2017-04-11T01:31:05.829Z,8.06
2017-04-11T01:31:46.702Z,8.06
2017-04-11T01:32:27.580Z,7.98
2017-04-11T01:33:08.461Z,7.93
2017-04-11T01:33:49.343Z,7.93
2017-04-11T01:34:30.221Z,7.9
2017-04-11T01:35:11.100Z,7.91
2017-04-11T01:35:51.973Z,7.97
2017-04-11T01:36:32.857Z,7.83
2017-04-11T01:37:13.734Z,7.95
2017-04-11T01:37:54.621Z,7.97
2017-04-11T01:38:35.500Z,8.01
2017-04-11T01:39:16.378Z,7.98
2017-04-11T01:39:57.250Z,7.98
2017-04-11T01:40:38.129Z,7.85
2017-04-11T01:41:19.008Z,7.82
2017-04-11T01:42:01.454Z,7.87
2017-04-11T01:42:42.343Z,7.85
2017-04-11T01:43:23.220Z,7.69
2017-04-11T01:44:04.095Z,7.73
2017-04-11T01:44:44.969Z,7.8
2017-04-11T01:45:25.846Z,7.76
2017-04-11T01:46:06.721Z,7.76
2017-04-11T01:46:47.600Z,7.79
2017-04-11T01:47:28.475Z,7.77
2017-04-11T01:48:11.240Z,7.79
2017-04-11T01:48:52.113Z,7.83
2017-04-11T01:49:32.992Z,7.67
2017-04-11T01:50:13.865Z,7.73
2017-04-11T01:50:54.776Z,7.75
2017-04-11T01:51:35.618Z,7.69
2017-04-11T01:52:16.490Z,7.69
2017-04-11T01:52:57.371Z,7.67
2017-04-11T01:53:38.246Z,7.7
2017-04-11T01:54:19.140Z,7.67
2017-04-11T01:55:00.015Z,7.85
2017-04-11T01:55:40.896Z,7.82
2017-04-11T01:56:21.773Z,7.75
2017-04-11T01:57:02.646Z,7.7
2017-04-11T01:57:43.523Z,7.7
2017-04-11T01:58:24.402Z,7.72
2017-04-11T01:59:05.280Z,7.76
2017-04-11T01:59:46.162Z,7.76
2017-04-11T02:00:28.957Z,7.8
2017-04-11T02:01:09.832Z,7.82
2017-04-11T02:01:50.719Z,7.79
2017-04-11T02:02:31.599Z,7.7
2017-04-11T02:03:14.460Z,7.73
2017-04-11T02:03:55.342Z,7.72
2017-04-11T02:04:36.221Z,7.79
2017-04-11T02:05:17.092Z,7.63
2017-04-11T02:05:57.977Z,7.67
2017-04-11T02:06:38.856Z,7.66
2017-04-11T02:07:23.103Z,7.69
2017-04-11T02:08:03.981Z,7.58
2017-04-11T02:08:44.858Z,7.66
2017-04-11T02:09:25.786Z,7.6
2017-04-11T02:10:06.657Z,7.6
2017-04-11T02:10:49.238Z,7.61
2017-04-11T02:11:30.113Z,7.58
2017-04-11T02:12:12.967Z,7.66
2017-04-11T02:12:53.842Z,7.76
2017-04-11T02:13:39.265Z,7.73
2017-04-11T02:14:20.145Z,7.83
2017-04-11T02:15:01.027Z,7.82
2017-04-11T02:15:43.465Z,7.67
2017-04-11T02:16:24.339Z,7.75
2017-04-11T02:17:05.215Z,7.69
2017-04-11T02:17:46.094Z,7.75
2017-04-11T02:18:26.972Z,7.67
2017-04-11T02:19:07.848Z,7.67
2017-04-11T02:19:48.719Z,7.69
2017-04-11T02:20:29.594Z,7.66
2017-04-11T02:21:10.465Z,7.61
2017-04-11T02:21:51.350Z,7.67
2017-04-11T02:22:33.739Z,7.67
2017-04-11T02:23:14.624Z,7.66
2017-04-11T02:23:55.493Z,7.7
2017-04-11T02:24:36.368Z,7.58
2017-04-11T02:25:17.247Z,7.58
2017-04-11T02:25:59.955Z,7.51
2017-04-11T02:26:40.823Z,7.54
2017-04-11T02:27:21.699Z,7.5
2017-04-11T02:28:02.575Z,7.51
2017-04-11T02:28:43.458Z,7.51
2017-04-11T02:29:24.343Z,7.48
2017-04-11T02:30:05.218Z,7.51
2017-04-11T02:30:46.092Z,7.36
2017-04-11T02:31:26.959Z,7.39
2017-04-11T02:32:07.833Z,7.4
2017-04-11T02:32:48.711Z,7.45
2017-04-11T02:33:29.598Z,7.36
2017-04-11T02:34:10.484Z,7.45
2017-04-11T02:34:51.364Z,7.38
2017-04-11T02:35:32.242Z,7.4
2017-04-11T02:36:13.118Z,7.47
2017-04-11T02:36:53.987Z,7.51
2017-04-11T02:37:34.872Z,7.48
2017-04-11T02:38:15.748Z,7.42
2017-04-11T02:38:56.624Z,7.47
2017-04-11T02:39:37.496Z,7.38
2017-04-11T02:40:18.371Z,7.38
2017-04-11T02:40:59.258Z,7.43
2017-04-11T02:41:40.139Z,7.38
2017-04-11T02:42:21.023Z,7.42
2017-04-11T02:43:01.905Z,7.35
2017-04-11T02:43:42.781Z,7.48
2017-04-11T02:44:25.463Z,7.45
2017-04-11T02:45:06.346Z,7.38
2017-04-11T02:45:50.739Z,7.32
2017-04-11T02:46:31.629Z,7.35
2017-04-11T02:47:12.506Z,7.35
2017-04-11T02:47:54.967Z,7.38
2017-04-11T02:48:35.841Z,7.42
2017-04-11T02:49:16.724Z,7.39
2017-04-11T02:49:57.605Z,7.38
2017-04-11T02:50:38.474Z,7.42
2017-04-11T02:51:19.351Z,7.36
2017-04-11T02:52:00.224Z,7.35
2017-04-11T02:52:41.103Z,7.31
2017-04-11T02:53:21.981Z,7.38
2017-04-11T02:54:02.858Z,7.58
2017-04-11T02:54:43.744Z,7.61
2017-04-11T02:55:24.620Z,7.53
2017-04-11T02:56:05.500Z,7.47
2017-04-11T02:56:46.379Z,7.28
2017-04-11T02:57:27.248Z,7.32
2017-04-11T02:58:08.154Z,7.5
2017-04-11T02:58:49.012Z,7.51
2017-04-11T02:59:29.894Z,7.53
2017-04-11T03:00:10.766Z,7.47
2017-04-11T03:00:53.463Z,7.43
2017-04-11T03:01:34.341Z,7.47
2017-04-11T03:02:15.252Z,7.4
2017-04-11T03:02:56.132Z,7.42
2017-04-11T03:03:37.015Z,7.5
2017-04-11T03:04:17.876Z,7.5
2017-04-11T03:05:00.607Z,7.53
2017-04-11T03:05:42.137Z,7.48
2017-04-11T03:06:23.007Z,7.58
2017-04-11T03:07:04.743Z,7.51
2017-04-11T03:07:45.645Z,7.53
2017-04-11T03:08:28.285Z,7.45
2017-04-11T03:09:09.133Z,7.5
2017-04-11T03:09:50.010Z,7.5
2017-04-11T03:10:30.890Z,7.56
2017-04-11T03:11:11.764Z,7.47
2017-04-11T03:11:52.642Z,7.43
2017-04-11T03:12:33.527Z,7.47
2017-04-11T03:13:14.408Z,7.38
2017-04-11T03:13:55.288Z,7.38
2017-04-11T03:14:36.165Z,7.43
2017-04-11T03:15:17.047Z,7.43
2017-04-11T03:15:57.929Z,7.35
2017-04-11T03:16:38.796Z,7.39
2017-04-11T03:17:21.487Z,7.45
2017-04-11T03:18:02.345Z,7.5
2017-04-11T03:18:43.225Z,7.43
2017-04-11T03:19:24.101Z,7.35
2017-04-11T03:20:04.976Z,7.4
2017-04-11T03:20:45.851Z,7.43
2017-04-11T03:21:26.727Z,7.48
2017-04-11T03:22:07.612Z,7.4
2017-04-11T03:22:48.487Z,7.47
2017-04-11T03:23:29.367Z,7.48
2017-04-11T03:24:10.243Z,7.5
2017-04-11T03:24:51.138Z,7.42
2017-04-11T03:25:32.020Z,7.45
2017-04-11T03:26:12.897Z,7.47
2017-04-11T03:26:53.766Z,7.43
2017-04-11T03:27:34.648Z,7.31
2017-04-11T03:28:15.523Z,7.47
2017-04-11T03:28:56.398Z,7.51
2017-04-11T03:29:37.274Z,7.42
2017-04-11T03:30:18.214Z,7.36
2017-04-11T03:30:59.095Z,7.39
2017-04-11T03:31:42.613Z,7.35
2017-04-11T03:32:23.486Z,7.38
2017-04-11T03:33:04.359Z,7.28
2017-04-11T03:33:45.244Z,7.24
2017-04-11T03:34:26.136Z,7.28
2017-04-11T03:35:06.985Z,7.28
2017-04-11T03:35:47.859Z,7.28
2017-04-11T03:36:28.732Z,7.31
2017-04-11T03:37:16.253Z,7.18
2017-04-11T03:38:54.285Z,7.21
2017-04-11T03:39:35.164Z,7.23
2017-04-11T03:40:16.046Z,7.23
2017-04-11T03:40:56.921Z,7.21
2017-04-11T03:41:37.797Z,7.23
2017-04-11T03:42:18.671Z,7.14
2017-04-11T03:42:59.550Z,7.17
2017-04-11T03:43:40.437Z,7.23
2017-04-11T03:44:21.315Z,7.25
2017-04-11T03:45:02.189Z,7.21
2017-04-11T03:45:43.067Z,7.24
2017-04-11T03:46:23.949Z,7.23
2017-04-11T03:47:04.828Z,7.2
2017-04-11T03:47:45.711Z,7.18
2017-04-11T03:48:26.568Z,7.21
2017-04-11T03:49:07.437Z,7.06
2017-04-11T03:49:48.324Z,7.06
2017-04-11T03:50:29.215Z,7.2
2017-04-11T03:51:10.092Z,7.25
2017-04-11T03:51:50.975Z,7.2
2017-04-11T03:53:08.807Z,7.14
2017-04-11T03:53:49.693Z,7.2
2017-04-11T03:54:30.566Z,7.2
2017-04-11T03:55:11.440Z,7.13
2017-04-11T03:55:52.312Z,7.21
2017-04-11T03:56:33.185Z,7.2
2017-04-11T03:57:14.067Z,7.17
2017-04-11T03:57:54.946Z,7.1
2017-04-11T03:58:35.830Z,7.07
2017-04-11T03:59:16.717Z,7.05
2017-04-11T03:59:57.557Z,7.07
2017-04-11T04:00:38.425Z,7.05
2017-04-11T04:01:19.302Z,7.1
2017-04-11T04:02:00.180Z,7.05
2017-04-11T04:02:41.068Z,7.02
2017-04-11T04:03:21.947Z,7.06
2017-04-11T04:04:02.821Z,7
2017-04-11T04:04:43.697Z,7.06
2017-04-11T04:05:24.576Z,7.03
2017-04-11T04:06:05.452Z,7.06
2017-04-11T04:06:46.323Z,7
2017-04-11T04:07:27.197Z,6.87
2017-04-11T04:08:08.069Z,6.87
2017-04-11T04:08:48.945Z,6.85
2017-04-11T04:09:29.820Z,6.84
2017-04-11T04:10:10.697Z,6.92
2017-04-11T04:10:51.574Z,6.87
2017-04-11T04:11:32.451Z,6.85
2017-04-11T04:12:13.339Z,6.79
2017-04-11T04:12:54.215Z,6.81
2017-04-11T04:13:35.088Z,6.88
2017-04-11T04:14:15.960Z,6.88
2017-04-11T04:14:56.835Z,6.82
2017-04-11T04:15:37.709Z,6.89
2017-04-11T04:16:18.579Z,6.84
2017-04-11T04:16:59.458Z,6.82
2017-04-11T04:17:40.342Z,6.82
2017-04-11T04:18:21.214Z,6.87
2017-04-11T04:19:02.084Z,6.69
2017-04-11T04:19:42.982Z,6.77
2017-04-11T04:20:23.871Z,6.79
2017-04-11T04:21:04.742Z,6.78
2017-04-11T04:21:45.620Z,6.85
2017-04-11T04:22:26.491Z,6.84
2017-04-11T04:23:07.362Z,6.75
2017-04-11T04:23:48.239Z,6.72
2017-04-11T04:24:29.112Z,6.74
2017-04-11T04:25:10.010Z,6.75
2017-04-11T04:25:50.871Z,6.66
2017-04-11T04:26:31.745Z,6.69
2017-04-11T04:27:12.619Z,6.67
2017-04-11T04:27:53.503Z,6.78
2017-04-11T04:28:34.383Z,6.75
2017-04-11T04:29:15.260Z,6.75
2017-04-11T04:29:56.129Z,6.72
2017-04-11T04:30:37.037Z,6.64
2017-04-11T04:31:17.901Z,6.75
2017-04-11T04:31:58.777Z,6.75
2017-04-11T04:32:39.651Z,6.78
2017-04-11T04:33:20.523Z,6.78
2017-04-11T04:34:01.401Z,6.77
2017-04-11T04:34:42.282Z,6.64
2017-04-11T04:35:23.159Z,6.75
2017-04-11T04:36:04.046Z,6.72
2017-04-11T04:36:44.901Z,6.67
2017-04-11T04:37:25.774Z,6.72
2017-04-11T04:38:06.653Z,6.66
2017-04-11T04:38:47.532Z,6.63
2017-04-11T04:39:28.408Z,6.64
2017-04-11T04:40:09.269Z,6.7
2017-04-11T04:40:50.143Z,6.7
2017-04-11T04:41:31.023Z,6.75
2017-04-11T04:42:11.908Z,6.64
2017-04-11T04:42:52.794Z,6.77
2017-04-11T04:43:33.669Z,6.78
2017-04-11T04:44:14.549Z,6.77
2017-04-11T04:44:55.413Z,6.84
2017-04-11T04:45:36.275Z,6.79
2017-04-11T04:46:17.159Z,6.63
2017-04-11T04:46:58.031Z,6.7
2017-04-11T04:47:38.902Z,6.7
2017-04-11T04:48:19.772Z,6.79
2017-04-11T04:49:00.645Z,6.82
2017-04-11T04:49:41.514Z,6.85
2017-04-11T04:50:22.386Z,6.92
2017-04-11T04:51:03.265Z,6.92
2017-04-11T04:51:44.144Z,6.85
2017-04-11T04:52:25.020Z,6.85
2017-04-11T04:53:05.894Z,6.92
2017-04-11T04:53:46.820Z,6.77
2017-04-11T04:54:27.698Z,6.74
2017-04-11T04:55:08.550Z,6.69
2017-04-11T04:55:49.429Z,6.72
2017-04-11T04:56:30.335Z,6.7
2017-04-11T04:57:11.212Z,6.93
2017-04-11T04:57:52.089Z,6.79
2017-04-11T04:58:32.965Z,6.78
2017-04-11T04:59:13.837Z,6.74
2017-04-11T04:59:54.725Z,6.7
2017-04-11T05:00:35.585Z,6.72
2017-04-11T05:01:16.468Z,6.74
2017-04-11T05:01:57.344Z,6.74
2017-04-11T05:02:38.211Z,6.75
2017-04-11T05:03:19.086Z,6.77
2017-04-11T05:03:59.961Z,6.82
2017-04-11T05:04:40.843Z,6.81
2017-04-11T05:05:21.724Z,6.77
2017-04-11T05:06:02.607Z,6.74
2017-04-11T05:06:43.467Z,6.7
2017-04-11T05:07:24.335Z,6.77
2017-04-11T05:08:05.194Z,6.87
2017-04-11T05:08:46.068Z,6.89
2017-04-11T05:09:26.957Z,6.95
2017-04-11T05:10:07.842Z,6.92
2017-04-11T05:10:48.716Z,6.87
2017-04-11T05:11:29.589Z,6.88
2017-04-11T05:12:10.545Z,6.96
2017-04-11T05:12:51.429Z,6.92
2017-04-11T05:13:32.306Z,6.87
2017-04-11T05:14:13.185Z,6.92
2017-04-11T05:14:54.059Z,6.95
2017-04-11T05:15:34.935Z,6.87
2017-04-11T05:16:15.828Z,6.96
2017-04-11T05:16:56.713Z,7.02
2017-04-11T05:17:37.598Z,6.96
2017-04-11T05:18:18.469Z,6.95
2017-04-11T05:18:59.338Z,7.03
2017-04-11T05:19:40.216Z,6.97
2017-04-11T05:20:21.115Z,6.82
2017-04-11T05:21:02.007Z,6.79
2017-04-11T05:21:42.861Z,6.95
2017-04-11T05:22:23.737Z,6.88
2017-04-11T05:23:04.606Z,6.89
2017-04-11T05:23:45.493Z,6.95
2017-04-11T05:24:26.377Z,6.88
2017-04-11T05:25:07.254Z,6.89
2017-04-11T05:25:48.148Z,7.03
2017-04-11T05:26:29.024Z,6.99
2017-04-11T05:27:09.899Z,6.99
2017-04-11T05:27:50.779Z,6.89
2017-04-11T05:28:31.648Z,6.92
2017-04-11T05:29:12.526Z,7.03
2017-04-11T05:29:53.404Z,6.99
2017-04-11T05:30:34.291Z,7.06
2017-04-11T05:31:15.167Z,7.06
2017-04-11T05:31:56.041Z,7.02
2017-04-11T05:32:36.928Z,7.05
2017-04-11T05:33:17.804Z,7.07
2017-04-11T05:33:58.679Z,7
2017-04-11T05:34:39.538Z,7.02
2017-04-11T05:35:20.414Z,7.02
2017-04-11T05:36:01.282Z,7.02
2017-04-11T05:36:42.149Z,7.06
2017-04-11T05:37:23.024Z,7.14
2017-04-11T05:38:03.892Z,7.28
2017-04-11T05:38:44.766Z,7.25
2017-04-11T05:39:25.654Z,7.2
2017-04-11T05:40:06.527Z,7.28
2017-04-11T05:40:47.404Z,7.28
2017-04-11T05:41:28.344Z,7.29
2017-04-11T05:42:09.252Z,7.24
2017-04-11T05:42:50.078Z,7.11
2017-04-11T05:43:30.961Z,7.06
2017-04-11T05:44:11.828Z,7.24
2017-04-11T05:44:52.710Z,7.21
2017-04-11T05:45:33.583Z,7.25
2017-04-11T05:46:14.461Z,7.15
2017-04-11T05:46:55.340Z,7.2
2017-04-11T05:47:36.221Z,7.06
2017-04-11T05:48:17.094Z,7.07
2017-04-11T05:48:57.967Z,7.02
2017-04-11T05:49:38.839Z,7.05
2017-04-11T05:50:19.719Z,7.06
2017-04-11T05:51:00.596Z,7.13
2017-04-11T05:51:41.479Z,7.23
2017-04-11T05:52:22.508Z,7.29
2017-04-11T05:53:03.275Z,7.18
2017-04-11T05:53:44.146Z,7.28
2017-04-11T05:54:25.021Z,7.24
2017-04-11T05:55:05.897Z,7.2
2017-04-11T05:55:46.773Z,7.21
2017-04-11T05:56:27.667Z,7.21
2017-04-11T05:57:08.553Z,7.11
2017-04-11T05:57:49.541Z,7.06
2017-04-11T05:58:30.341Z,7.1
2017-04-11T05:59:11.238Z,7.13
2017-04-11T05:59:52.083Z,7.17
2017-04-11T06:00:32.960Z,7.13
2017-04-11T06:01:13.836Z,7.17
2017-04-11T06:01:54.724Z,7.21
2017-04-11T06:02:35.602Z,7.25
2017-04-11T06:03:16.535Z,7.29
2017-04-11T06:03:57.415Z,7.29
2017-04-11T06:04:38.301Z,7.42
2017-04-11T06:05:19.176Z,7.36
2017-04-11T06:06:00.050Z,7.33
2017-04-11T06:06:40.917Z,7.39
2017-04-11T06:07:21.797Z,7.29
2017-04-11T06:08:02.668Z,7.28
2017-04-11T06:08:43.550Z,7.33
2017-04-11T06:09:24.420Z,7.29
2017-04-11T06:10:05.302Z,7.4
2017-04-11T06:10:46.199Z,7.4
2017-04-11T06:11:27.080Z,7.42
2017-04-11T06:12:07.954Z,7.32
2017-04-11T06:12:48.824Z,7.36
2017-04-11T06:13:29.699Z,7.36
2017-04-11T06:14:10.608Z,7.35
2017-04-11T06:14:51.464Z,7.28
2017-04-11T06:15:32.340Z,7.15
2017-04-11T06:16:13.211Z,7.33
2017-04-11T06:16:54.089Z,7.4
2017-04-11T06:17:34.980Z,7.31
2017-04-11T06:18:15.847Z,7.33
2017-04-11T06:18:56.724Z,7.39
2017-04-11T06:19:37.608Z,7.29
2017-04-11T06:20:18.497Z,7.4
2017-04-11T06:20:59.388Z,7.4
2017-04-11T06:21:40.265Z,7.53
2017-04-11T06:22:21.134Z,7.45
2017-04-11T06:23:02.013Z,7.5
2017-04-11T06:23:42.890Z,7.51
2017-04-11T06:24:23.762Z,7.47
2017-04-11T06:25:04.631Z,7.51
2017-04-11T06:25:45.513Z,7.53
2017-04-11T06:26:26.447Z,7.6
2017-04-11T06:27:07.322Z,7.7
2017-04-11T06:27:48.190Z,7.8
2017-04-11T06:28:29.071Z,7.72
2017-04-11T06:29:09.953Z,7.75
2017-04-11T06:29:50.832Z,7.82
2017-04-11T06:30:31.726Z,7.88
2017-04-11T06:31:12.606Z,7.98
2017-04-11T06:31:53.489Z,7.82
2017-04-11T06:32:35.177Z,7.8
2017-04-11T06:33:16.046Z,7.69
2017-04-11T06:33:56.927Z,7.79
2017-04-11T06:34:37.804Z,7.83
2017-04-11T06:35:18.681Z,7.72
2017-04-11T06:35:59.557Z,7.69
2017-04-11T06:36:40.432Z,7.61
2017-04-11T06:37:21.324Z,7.63
2017-04-11T06:38:02.197Z,7.83
2017-04-11T06:38:43.069Z,8
2017-04-11T06:39:23.949Z,7.95
2017-04-11T06:40:04.816Z,7.97
2017-04-11T06:40:45.687Z,8.08
2017-04-11T06:41:26.572Z,8.08
2017-04-11T06:42:07.440Z,7.97
2017-04-11T06:42:48.349Z,7.85
2017-04-11T06:43:29.200Z,7.82
2017-04-11T06:44:10.070Z,7.9
2017-04-11T06:44:50.954Z,7.72
2017-04-11T06:45:31.822Z,7.77
2017-04-11T06:46:12.696Z,7.73
2017-04-11T06:46:53.579Z,7.82
2017-04-11T06:47:34.450Z,7.77
2017-04-11T06:48:15.336Z,7.69
2017-04-11T06:48:56.213Z,7.6
2017-04-11T06:49:37.091Z,7.63
2017-04-11T06:50:17.974Z,7.63
2017-04-11T06:50:58.876Z,7.67
2017-04-11T06:51:39.752Z,7.69
2017-04-11T06:52:20.629Z,7.67
2017-04-11T06:53:01.505Z,7.87
2017-04-11T06:53:42.376Z,7.98
2017-04-11T06:54:23.254Z,7.97
2017-04-11T06:55:04.125Z,7.77
2017-04-11T06:55:45.002Z,7.75
2017-04-11T06:56:25.884Z,7.69
2017-04-11T06:57:06.769Z,7.8
2017-04-11T06:57:47.648Z,7.75
2017-04-11T06:58:28.526Z,7.73
2017-04-11T06:59:09.387Z,7.79
2017-04-11T06:59:50.294Z,7.85
2017-04-11T07:00:31.137Z,7.77
2017-04-11T07:01:12.023Z,7.72
2017-04-11T07:01:52.901Z,7.61
2017-04-11T07:02:33.775Z,7.69
2017-04-11T07:03:14.656Z,7.69
2017-04-11T07:03:55.530Z,7.63
2017-04-11T07:04:36.407Z,7.66
2017-04-11T07:06:34.903Z,7.53
2017-04-11T07:07:15.781Z,7.67
2017-04-11T07:07:56.656Z,7.7
2017-04-11T07:08:37.536Z,7.61
2017-04-11T07:09:18.410Z,7.63
2017-04-11T07:09:59.291Z,7.94
2017-04-11T07:10:40.171Z,8.12
2017-04-11T07:11:21.069Z,8.16
2017-04-11T07:12:01.939Z,8.05
2017-04-11T07:12:42.821Z,8.01
2017-04-11T07:13:23.698Z,7.9
2017-04-11T07:14:04.574Z,8.03
2017-04-11T07:14:45.446Z,7.97
2017-04-11T07:15:26.326Z,7.94
2017-04-11T07:16:07.205Z,7.93
2017-04-11T07:16:48.086Z,7.97
2017-04-11T07:17:28.964Z,7.98
2017-04-11T07:18:09.844Z,8.15
2017-04-11T07:18:50.720Z,8.2
2017-04-11T07:19:31.604Z,8.23
2017-04-11T07:20:12.483Z,8.13
2017-04-11T07:20:53.371Z,8.05
2017-04-11T07:21:34.237Z,8
2017-04-11T07:22:15.158Z,7.97
2017-04-11T07:22:55.999Z,8.01
2017-04-11T07:23:36.886Z,8.05
2017-04-11T07:24:17.761Z,8.15
2017-04-11T07:24:58.641Z,8.27
2017-04-11T07:25:39.521Z,7.93
2017-04-11T07:26:20.407Z,7.76
2017-04-11T07:27:01.277Z,7.85
2017-04-11T07:27:42.154Z,7.87
2017-04-11T07:28:23.027Z,7.93
2017-04-11T07:29:03.905Z,8.05
2017-04-11T07:29:44.818Z,8.01
2017-04-11T07:30:25.699Z,8.03
2017-04-11T07:31:06.562Z,8.06
2017-04-11T07:31:47.460Z,8.06
2017-04-11T07:32:28.319Z,8
2017-04-11T07:33:09.199Z,8.03
2017-04-11T07:33:50.090Z,8.12
2017-04-11T07:34:30.968Z,8.09
2017-04-11T07:35:11.842Z,8.26
2017-04-11T07:35:52.724Z,8.3
2017-04-11T07:36:33.596Z,8.37
2017-04-11T07:37:14.472Z,8.34
2017-04-11T07:37:55.402Z,8.36
2017-04-11T07:38:36.274Z,8.28
2017-04-11T07:39:17.150Z,8.24
2017-04-11T07:39:58.022Z,8.08
2017-04-11T07:40:38.909Z,8.16
2017-04-11T07:41:19.790Z,8.12
2017-04-11T07:42:00.688Z,7.98
2017-04-11T07:42:41.566Z,7.82
2017-04-11T07:43:22.446Z,7.83
2017-04-11T07:44:03.316Z,7.72
2017-04-11T07:44:44.191Z,7.58
2017-04-11T07:45:25.072Z,7.61
2017-04-11T07:46:05.942Z,7.5
2017-04-11T07:46:46.820Z,7.61
2017-04-11T07:47:27.696Z,7.58
2017-04-11T07:48:08.574Z,7.56
2017-04-11T07:48:49.450Z,7.51
2017-04-11T07:49:30.322Z,7.57
2017-04-11T07:50:11.203Z,7.5
2017-04-11T07:50:52.088Z,7.42
2017-04-11T07:51:32.970Z,7.5
2017-04-11T07:52:13.835Z,7.45
2017-04-11T07:52:54.740Z,7.31
2017-04-11T07:53:35.623Z,7.4
2017-04-11T07:54:16.542Z,7.43
2017-04-11T07:54:57.409Z,7.53
2017-04-11T07:55:38.283Z,7.51
2017-04-11T07:56:19.156Z,7.53
2017-04-11T07:57:00.035Z,7.29
2017-04-11T07:57:40.910Z,7.32
2017-04-11T07:58:21.788Z,7.32
2017-04-11T07:59:02.664Z,7.35
2017-04-11T07:59:43.543Z,7.32
2017-04-11T08:00:24.421Z,7.45
2017-04-11T08:01:05.296Z,7.31
2017-04-11T08:01:46.168Z,7.38
2017-04-11T08:02:27.048Z,7.43
2017-04-11T08:03:07.917Z,7.36
2017-04-11T08:03:48.795Z,7.42
2017-04-11T08:04:29.669Z,7.33
2017-04-11T08:05:10.545Z,7.36
2017-04-11T08:05:51.422Z,7.33
2017-04-11T08:06:32.300Z,7.29
2017-04-11T08:07:13.184Z,7.43
2017-04-11T08:07:54.056Z,7.38
2017-04-11T08:08:34.927Z,7.38
2017-04-11T08:09:15.854Z,7.48
2017-04-11T08:09:56.676Z,7.51
2017-04-11T08:10:37.558Z,7.5
2017-04-11T08:11:18.435Z,7.63
2017-04-11T08:11:59.313Z,7.61
2017-04-11T08:12:40.196Z,7.6
2017-04-11T08:13:21.079Z,7.66
2017-04-11T08:14:01.978Z,7.69
2017-04-11T08:14:42.826Z,7.61
2017-04-11T08:15:23.701Z,7.66
2017-04-11T08:16:04.572Z,7.61
2017-04-11T08:16:45.448Z,7.67
2017-04-11T08:17:26.331Z,7.69
2017-04-11T08:18:07.191Z,7.61
2017-04-11T08:18:48.087Z,7.82
2017-04-11T08:19:28.964Z,7.77
2017-04-11T08:20:09.835Z,7.72
2017-04-11T08:20:50.707Z,7.72
2017-04-11T08:21:31.583Z,7.72
2017-04-11T08:22:12.464Z,7.82
2017-04-11T08:22:53.348Z,7.83
2017-04-11T08:23:34.220Z,7.77
2017-04-11T08:24:15.093Z,7.87
2017-04-11T08:24:55.971Z,7.91
2017-04-11T08:25:36.852Z,7.97
2017-04-11T08:26:17.731Z,7.9
2017-04-11T08:26:58.606Z,7.91
2017-04-11T08:27:39.489Z,7.72
2017-04-11T08:28:20.363Z,7.75
2017-04-11T08:29:01.247Z,7.69
2017-04-11T08:29:42.130Z,7.85
2017-04-11T08:30:23.004Z,7.69
2017-04-11T08:31:03.881Z,7.75
2017-04-11T08:31:44.755Z,7.61
2017-04-11T08:32:25.634Z,7.7
2017-04-11T08:33:06.509Z,7.66
2017-04-11T08:33:47.383Z,7.75
2017-04-11T08:34:28.262Z,7.72
2017-04-11T08:35:09.142Z,7.63
2017-04-11T08:35:50.019Z,7.67
2017-04-11T08:36:30.897Z,7.63
2017-04-11T08:37:11.778Z,7.63
2017-04-11T08:37:52.654Z,7.69
2017-04-11T08:38:33.532Z,7.75
2017-04-11T08:39:14.438Z,7.75
2017-04-11T08:39:55.293Z,7.61
2017-04-11T08:40:36.174Z,7.7
2017-04-11T08:41:17.050Z,7.63
2017-04-11T08:41:57.926Z,7.69
2017-04-11T08:42:38.810Z,7.75
2017-04-11T08:43:19.694Z,7.82
2017-04-11T08:44:00.572Z,7.83
2017-04-11T08:44:41.451Z,7.85
2017-04-11T08:45:22.330Z,7.88
2017-04-11T08:46:03.207Z,7.87
2017-04-11T08:46:44.083Z,7.87
2017-04-11T08:47:24.955Z,8.08
2017-04-11T08:48:05.832Z,8
2017-04-11T08:48:46.706Z,8.08
2017-04-11T08:49:27.604Z,8.15
2017-04-11T08:50:08.482Z,8.34
2017-04-11T08:50:50.133Z,8.3
2017-04-11T08:51:31.014Z,8.51
2017-04-11T08:52:11.908Z,8.67
2017-04-11T08:52:52.787Z,8.84
2017-04-11T08:53:33.659Z,8.81
2017-04-11T08:54:14.547Z,8.82
2017-04-11T08:54:55.408Z,9.1
2017-04-11T08:55:36.276Z,9.14
2017-04-11T08:56:17.156Z,9.34
2017-04-11T08:56:58.033Z,9.59
2017-04-11T08:57:38.910Z,9.56
2017-04-11T08:58:19.798Z,9.36
2017-04-11T08:59:00.667Z,9.22
2017-04-11T08:59:41.545Z,9.55
2017-04-11T09:00:22.428Z,9.92
2017-04-11T09:01:03.311Z,9.87
2017-04-11T09:01:44.190Z,9.84
2017-04-11T09:02:25.065Z,9.65
2017-04-11T09:03:05.951Z,9.66
2017-04-11T09:03:46.826Z,9.73
2017-04-11T09:04:27.715Z,9.69
2017-04-11T09:05:08.589Z,9.72
2017-04-11T09:05:49.473Z,9.59
2017-04-11T09:06:30.369Z,9.68
2017-04-11T09:07:11.245Z,9.77
2017-04-11T09:07:52.113Z,9.83
2017-04-11T09:08:32.990Z,9.54
2017-04-11T09:09:13.885Z,9.47
2017-04-11T09:09:54.766Z,9.43
2017-04-11T09:10:35.645Z,9.47
2017-04-11T09:11:16.520Z,9.43